sensor_id;sensor_type;location;lat;lon;timestamp;temperature;humidity
2487;DHT22;1254;49.144;8.212;2022-08-25T00:02:02;21.10;99.90
2487;DHT22;1254;49.144;8.212;2022-08-25T00:04:29;21.20;99.90
2487;DHT22;1254;49.144;8.212;2022-08-25T00:06:56;21.30;99.90
2487;DHT22;1254;49.144;8.212;2022-08-25T00:09:25;21.30;99.90
2487;DHT22;1254;49.144;8.212;2022-08-25T00:11:53;21.30;99.90
2487;DHT22;1254;49.144;8.212;2022-08-25T00:14:23;21.30;99.90
2487;DHT22;1254;49.144;8.212;2022-08-25T00:16:50;21.40;99.90
2487;DHT22;1254;49.144;8.212;2022-08-25T00:19:25;21.40;99.90
2487;DHT22;1254;49.144;8.212;2022-08-25T00:21:52;21.40;99.90
2487;DHT22;1254;49.144;8.212;2022-08-25T00:24:20;21.40;99.90
2487;DHT22;1254;49.144;8.212;2022-08-25T00:26:51;21.30;99.90
2487;DHT22;1254;49.144;8.212;2022-08-25T00:29:17;21.30;99.90
2487;DHT22;1254;49.144;8.212;2022-08-25T00:31:44;21.30;99.90
2487;DHT22;1254;49.144;8.212;2022-08-25T00:34:17;21.30;99.90
2487;DHT22;1254;49.144;8.212;2022-08-25T00:36:44;21.20;99.90
2487;DHT22;1254;49.144;8.212;2022-08-25T00:39:12;21.20;99.90
2487;DHT22;1254;49.144;8.212;2022-08-25T00:41:41;21.30;99.90
2487;DHT22;1254;49.144;8.212;2022-08-25T00:44:11;21.30;99.90
2487;DHT22;1254;49.144;8.212;2022-08-25T00:46:44;21.30;99.90
2487;DHT22;1254;49.144;8.212;2022-08-25T00:49:23;21.30;99.90
2487;DHT22;1254;49.144;8.212;2022-08-25T00:52:12;21.30;99.90
2487;DHT22;1254;49.144;8.212;2022-08-25T00:54:50;21.20;99.90
2487;DHT22;1254;49.144;8.212;2022-08-25T00:57:20;21.20;99.90
2487;DHT22;1254;49.144;8.212;2022-08-25T00:59:48;21.10;99.90
2487;DHT22;1254;49.144;8.212;2022-08-25T01:02:15;21.10;99.90
2487;DHT22;1254;49.144;8.212;2022-08-25T01:04:43;21.10;99.90
2487;DHT22;1254;49.144;8.212;2022-08-25T01:07:11;21.00;99.90
2487;DHT22;1254;49.144;8.212;2022-08-25T01:09:38;21.00;99.90
2487;DHT22;1254;49.144;8.212;2022-08-25T01:12:04;21.00;99.90
2487;DHT22;1254;49.144;8.212;2022-08-25T01:14:33;20.90;99.90
2487;DHT22;1254;49.144;8.212;2022-08-25T01:16:59;20.90;99.90
2487;DHT22;1254;49.144;8.212;2022-08-25T01:19:27;20.80;99.90
2487;DHT22;1254;49.144;8.212;2022-08-25T01:21:55;20.90;99.90
2487;DHT22;1254;49.144;8.212;2022-08-25T01:24:30;20.80;99.90
2487;DHT22;1254;49.144;8.212;2022-08-25T01:27:00;20.80;99.90
2487;DHT22;1254;49.144;8.212;2022-08-25T01:29:27;20.80;99.90
2487;DHT22;1254;49.144;8.212;2022-08-25T01:31:58;20.80;99.90
2487;DHT22;1254;49.144;8.212;2022-08-25T01:34:27;20.80;99.90
2487;DHT22;1254;49.144;8.212;2022-08-25T01:36:56;20.80;99.90
2487;DHT22;1254;49.144;8.212;2022-08-25T01:39:23;20.80;99.90
2487;DHT22;1254;49.144;8.212;2022-08-25T01:41:57;20.70;99.90
2487;DHT22;1254;49.144;8.212;2022-08-25T01:44:24;20.70;99.90
2487;DHT22;1254;49.144;8.212;2022-08-25T01:46:52;20.60;99.90
2487;DHT22;1254;49.144;8.212;2022-08-25T01:49:18;20.60;99.90
2487;DHT22;1254;49.144;8.212;2022-08-25T01:51:52;20.50;99.90
2487;DHT22;1254;49.144;8.212;2022-08-25T01:54:20;20.50;99.90
2487;DHT22;1254;49.144;8.212;2022-08-25T01:56:47;20.50;99.90
2487;DHT22;1254;49.144;8.212;2022-08-25T01:59:16;20.40;99.90
2487;DHT22;1254;49.144;8.212;2022-08-25T02:01:43;20.50;99.90
2487;DHT22;1254;49.144;8.212;2022-08-25T02:04:09;20.40;99.90
2487;DHT22;1254;49.144;8.212;2022-08-25T02:06:35;20.40;99.90
2487;DHT22;1254;49.144;8.212;2022-08-25T02:09:08;20.40;99.90
2487;DHT22;1254;49.144;8.212;2022-08-25T02:11:37;20.40;99.90
2487;DHT22;1254;49.144;8.212;2022-08-25T02:14:05;20.30;99.90
2487;DHT22;1254;49.144;8.212;2022-08-25T02:16:34;20.30;99.90
2487;DHT22;1254;49.144;8.212;2022-08-25T02:19:06;20.20;99.90
2487;DHT22;1254;49.144;8.212;2022-08-25T02:21:34;20.20;99.90
2487;DHT22;1254;49.144;8.212;2022-08-25T02:24:02;20.20;99.90
2487;DHT22;1254;49.144;8.212;2022-08-25T02:26:29;20.20;99.90
2487;DHT22;1254;49.144;8.212;2022-08-25T02:28:56;20.20;99.90
2487;DHT22;1254;49.144;8.212;2022-08-25T02:31:24;20.20;99.90
2487;DHT22;1254;49.144;8.212;2022-08-25T02:33:51;20.10;99.90
2487;DHT22;1254;49.144;8.212;2022-08-25T02:36:18;20.00;99.90
2487;DHT22;1254;49.144;8.212;2022-08-25T02:38:45;20.00;99.90
2487;DHT22;1254;49.144;8.212;2022-08-25T02:41:15;20.00;99.90
2487;DHT22;1254;49.144;8.212;2022-08-25T02:43:42;20.00;99.90
2487;DHT22;1254;49.144;8.212;2022-08-25T02:46:10;20.00;99.90
2487;DHT22;1254;49.144;8.212;2022-08-25T02:48:37;20.00;99.90
2487;DHT22;1254;49.144;8.212;2022-08-25T02:51:05;19.90;99.90
2487;DHT22;1254;49.144;8.212;2022-08-25T02:53:33;19.90;99.90
2487;DHT22;1254;49.144;8.212;2022-08-25T02:56:00;19.90;99.90
2487;DHT22;1254;49.144;8.212;2022-08-25T02:58:26;19.90;99.90
2487;DHT22;1254;49.144;8.212;2022-08-25T03:00:54;20.00;99.90
2487;DHT22;1254;49.144;8.212;2022-08-25T03:03:21;20.00;99.90
2487;DHT22;1254;49.144;8.212;2022-08-25T03:05:48;20.00;99.90
2487;DHT22;1254;49.144;8.212;2022-08-25T03:08:14;20.00;99.90
2487;DHT22;1254;49.144;8.212;2022-08-25T03:10:41;20.00;99.90
2487;DHT22;1254;49.144;8.212;2022-08-25T03:13:07;20.00;99.90
2487;DHT22;1254;49.144;8.212;2022-08-25T03:15:34;20.00;99.90
2487;DHT22;1254;49.144;8.212;2022-08-25T03:18:04;20.00;99.90
2487;DHT22;1254;49.144;8.212;2022-08-25T03:20:31;20.00;99.90
2487;DHT22;1254;49.144;8.212;2022-08-25T03:22:58;20.00;99.90
2487;DHT22;1254;49.144;8.212;2022-08-25T03:25:24;19.90;99.90
2487;DHT22;1254;49.144;8.212;2022-08-25T03:28:09;19.90;99.90
2487;DHT22;1254;49.144;8.212;2022-08-25T03:30:36;19.90;99.90
2487;DHT22;1254;49.144;8.212;2022-08-25T03:33:02;19.90;99.90
2487;DHT22;1254;49.144;8.212;2022-08-25T03:35:29;19.90;99.90
2487;DHT22;1254;49.144;8.212;2022-08-25T03:37:58;19.80;99.90
2487;DHT22;1254;49.144;8.212;2022-08-25T03:40:25;19.80;99.90
2487;DHT22;1254;49.144;8.212;2022-08-25T03:42:52;19.90;99.90
2487;DHT22;1254;49.144;8.212;2022-08-25T03:45:20;19.80;99.90
2487;DHT22;1254;49.144;8.212;2022-08-25T03:47:48;19.90;99.90
2487;DHT22;1254;49.144;8.212;2022-08-25T03:50:16;19.80;99.90
2487;DHT22;1254;49.144;8.212;2022-08-25T03:52:43;19.80;99.90
2487;DHT22;1254;49.144;8.212;2022-08-25T03:55:12;19.80;99.90
2487;DHT22;1254;49.144;8.212;2022-08-25T03:57:39;19.90;99.90
2487;DHT22;1254;49.144;8.212;2022-08-25T04:00:07;19.80;99.90
2487;DHT22;1254;49.144;8.212;2022-08-25T04:02:34;19.80;99.90
2487;DHT22;1254;49.144;8.212;2022-08-25T04:05:01;19.80;99.90
2487;DHT22;1254;49.144;8.212;2022-08-25T04:07:27;19.80;99.90
2487;DHT22;1254;49.144;8.212;2022-08-25T04:09:54;19.70;99.90
2487;DHT22;1254;49.144;8.212;2022-08-25T04:12:21;19.70;99.90
2487;DHT22;1254;49.144;8.212;2022-08-25T04:14:48;19.60;99.90
2487;DHT22;1254;49.144;8.212;2022-08-25T04:17:15;19.60;99.90
2487;DHT22;1254;49.144;8.212;2022-08-25T04:19:42;19.60;99.90
2487;DHT22;1254;49.144;8.212;2022-08-25T04:22:08;19.60;99.90
2487;DHT22;1254;49.144;8.212;2022-08-25T04:24:35;19.60;99.90
2487;DHT22;1254;49.144;8.212;2022-08-25T04:27:01;19.50;99.90
2487;DHT22;1254;49.144;8.212;2022-08-25T04:29:27;19.50;99.90
2487;DHT22;1254;49.144;8.212;2022-08-25T04:31:54;19.40;99.90
2487;DHT22;1254;49.144;8.212;2022-08-25T04:34:23;19.40;99.90
2487;DHT22;1254;49.144;8.212;2022-08-25T04:36:50;19.30;99.90
2487;DHT22;1254;49.144;8.212;2022-08-25T04:39:18;19.30;99.90
2487;DHT22;1254;49.144;8.212;2022-08-25T04:41:46;19.30;99.90
2487;DHT22;1254;49.144;8.212;2022-08-25T04:44:13;19.30;99.90
2487;DHT22;1254;49.144;8.212;2022-08-25T04:46:40;19.40;99.90
2487;DHT22;1254;49.144;8.212;2022-08-25T04:49:06;19.40;99.90
2487;DHT22;1254;49.144;8.212;2022-08-25T04:51:36;19.50;99.90
2487;DHT22;1254;49.144;8.212;2022-08-25T04:54:10;19.50;99.90
2487;DHT22;1254;49.144;8.212;2022-08-25T04:56:39;19.50;99.90
2487;DHT22;1254;49.144;8.212;2022-08-25T04:59:10;19.50;99.90
2487;DHT22;1254;49.144;8.212;2022-08-25T05:01:37;19.60;99.90
2487;DHT22;1254;49.144;8.212;2022-08-25T05:04:07;19.70;99.90
2487;DHT22;1254;49.144;8.212;2022-08-25T05:06:33;19.70;99.90
2487;DHT22;1254;49.144;8.212;2022-08-25T05:09:01;19.70;99.90
2487;DHT22;1254;49.144;8.212;2022-08-25T05:11:29;19.80;99.90
2487;DHT22;1254;49.144;8.212;2022-08-25T05:13:56;19.80;99.90
2487;DHT22;1254;49.144;8.212;2022-08-25T05:16:24;19.80;99.90
2487;DHT22;1254;49.144;8.212;2022-08-25T05:18:52;19.90;99.90
2487;DHT22;1254;49.144;8.212;2022-08-25T05:21:24;19.90;99.90
2487;DHT22;1254;49.144;8.212;2022-08-25T05:23:59;19.90;99.90
2487;DHT22;1254;49.144;8.212;2022-08-25T05:26:27;20.00;99.90
2487;DHT22;1254;49.144;8.212;2022-08-25T05:28:57;20.10;99.90
2487;DHT22;1254;49.144;8.212;2022-08-25T05:31:24;20.20;99.90
2487;DHT22;1254;49.144;8.212;2022-08-25T05:33:52;20.20;99.90
2487;DHT22;1254;49.144;8.212;2022-08-25T05:36:19;20.30;99.90
2487;DHT22;1254;49.144;8.212;2022-08-25T05:38:46;20.30;99.90
2487;DHT22;1254;49.144;8.212;2022-08-25T05:41:16;20.40;99.90
2487;DHT22;1254;49.144;8.212;2022-08-25T05:43:45;20.30;99.90
2487;DHT22;1254;49.144;8.212;2022-08-25T05:46:12;20.40;99.90
2487;DHT22;1254;49.144;8.212;2022-08-25T05:48:39;20.50;99.90
2487;DHT22;1254;49.144;8.212;2022-08-25T05:51:07;20.60;99.90
2487;DHT22;1254;49.144;8.212;2022-08-25T05:53:36;20.60;99.90
2487;DHT22;1254;49.144;8.212;2022-08-25T05:56:03;20.70;99.90
2487;DHT22;1254;49.144;8.212;2022-08-25T05:58:30;20.80;99.90
2487;DHT22;1254;49.144;8.212;2022-08-25T06:00:57;20.80;99.90
2487;DHT22;1254;49.144;8.212;2022-08-25T06:03:44;20.80;99.90
2487;DHT22;1254;49.144;8.212;2022-08-25T06:06:13;21.00;99.90
2487;DHT22;1254;49.144;8.212;2022-08-25T06:08:42;21.00;99.90
2487;DHT22;1254;49.144;8.212;2022-08-25T06:11:10;21.10;99.90
2487;DHT22;1254;49.144;8.212;2022-08-25T06:13:38;21.10;99.90
2487;DHT22;1254;49.144;8.212;2022-08-25T06:16:04;21.10;99.90
2487;DHT22;1254;49.144;8.212;2022-08-25T06:18:31;21.10;99.90
2487;DHT22;1254;49.144;8.212;2022-08-25T06:20:57;21.20;99.90
2487;DHT22;1254;49.144;8.212;2022-08-25T06:23:24;21.30;99.90
2487;DHT22;1254;49.144;8.212;2022-08-25T06:25:52;21.40;99.90
2487;DHT22;1254;49.144;8.212;2022-08-25T06:28:19;21.40;99.90
2487;DHT22;1254;49.144;8.212;2022-08-25T06:30:47;21.60;99.90
2487;DHT22;1254;49.144;8.212;2022-08-25T06:33:13;21.80;99.90
2487;DHT22;1254;49.144;8.212;2022-08-25T06:35:41;21.70;99.90
2487;DHT22;1254;49.144;8.212;2022-08-25T06:38:08;21.80;99.90
2487;DHT22;1254;49.144;8.212;2022-08-25T06:40:35;22.00;99.90
2487;DHT22;1254;49.144;8.212;2022-08-25T06:43:02;22.10;99.90
2487;DHT22;1254;49.144;8.212;2022-08-25T06:45:31;22.00;99.90
2487;DHT22;1254;49.144;8.212;2022-08-25T06:47:58;22.20;99.90
2487;DHT22;1254;49.144;8.212;2022-08-25T06:50:24;22.30;99.90
2487;DHT22;1254;49.144;8.212;2022-08-25T06:52:51;22.50;99.90
2487;DHT22;1254;49.144;8.212;2022-08-25T06:55:17;22.70;99.90
2487;DHT22;1254;49.144;8.212;2022-08-25T06:57:44;22.90;99.90
2487;DHT22;1254;49.144;8.212;2022-08-25T07:00:11;22.90;99.90
2487;DHT22;1254;49.144;8.212;2022-08-25T07:02:37;22.90;99.90
2487;DHT22;1254;49.144;8.212;2022-08-25T07:05:05;22.70;99.90
2487;DHT22;1254;49.144;8.212;2022-08-25T07:07:31;22.70;99.90
2487;DHT22;1254;49.144;8.212;2022-08-25T07:09:58;22.80;99.90
2487;DHT22;1254;49.144;8.212;2022-08-25T07:12:24;23.00;99.90
2487;DHT22;1254;49.144;8.212;2022-08-25T07:14:51;23.00;99.90
2487;DHT22;1254;49.144;8.212;2022-08-25T07:17:17;23.10;99.90
2487;DHT22;1254;49.144;8.212;2022-08-25T07:19:44;23.20;99.90
2487;DHT22;1254;49.144;8.212;2022-08-25T07:22:10;23.30;99.90
2487;DHT22;1254;49.144;8.212;2022-08-25T07:24:37;23.40;99.90
2487;DHT22;1254;49.144;8.212;2022-08-25T07:27:03;23.30;99.90
2487;DHT22;1254;49.144;8.212;2022-08-25T07:29:30;23.30;99.90
2487;DHT22;1254;49.144;8.212;2022-08-25T07:32:02;23.40;99.90
2487;DHT22;1254;49.144;8.212;2022-08-25T07:34:28;23.50;99.90
2487;DHT22;1254;49.144;8.212;2022-08-25T07:37:13;23.70;99.90
2487;DHT22;1254;49.144;8.212;2022-08-25T07:39:40;23.50;99.90
2487;DHT22;1254;49.144;8.212;2022-08-25T07:42:07;23.70;99.90
2487;DHT22;1254;49.144;8.212;2022-08-25T07:44:34;23.70;99.90
2487;DHT22;1254;49.144;8.212;2022-08-25T07:47:00;23.80;99.90
2487;DHT22;1254;49.144;8.212;2022-08-25T07:49:27;23.70;99.90
2487;DHT22;1254;49.144;8.212;2022-08-25T07:51:54;23.90;99.90
2487;DHT22;1254;49.144;8.212;2022-08-25T07:54:20;24.20;99.90
2487;DHT22;1254;49.144;8.212;2022-08-25T07:56:48;24.10;99.90
2487;DHT22;1254;49.144;8.212;2022-08-25T07:59:14;24.30;99.90
2487;DHT22;1254;49.144;8.212;2022-08-25T08:01:41;24.50;99.90
2487;DHT22;1254;49.144;8.212;2022-08-25T08:04:08;24.50;99.90
2487;DHT22;1254;49.144;8.212;2022-08-25T08:06:34;24.60;99.90
2487;DHT22;1254;49.144;8.212;2022-08-25T08:09:01;24.60;99.90
2487;DHT22;1254;49.144;8.212;2022-08-25T08:11:31;24.70;99.90
2487;DHT22;1254;49.144;8.212;2022-08-25T08:14:00;25.00;99.90
2487;DHT22;1254;49.144;8.212;2022-08-25T08:16:28;25.00;99.90
2487;DHT22;1254;49.144;8.212;2022-08-25T08:18:56;25.10;99.90
2487;DHT22;1254;49.144;8.212;2022-08-25T08:21:27;25.30;99.90
2487;DHT22;1254;49.144;8.212;2022-08-25T08:23:54;25.50;99.90
2487;DHT22;1254;49.144;8.212;2022-08-25T08:26:22;25.40;99.90
2487;DHT22;1254;49.144;8.212;2022-08-25T08:28:49;25.50;99.90
2487;DHT22;1254;49.144;8.212;2022-08-25T08:31:20;25.70;99.90
2487;DHT22;1254;49.144;8.212;2022-08-25T08:33:48;25.70;99.90
2487;DHT22;1254;49.144;8.212;2022-08-25T08:36:14;25.80;99.90
2487;DHT22;1254;49.144;8.212;2022-08-25T08:38:42;25.80;99.90
2487;DHT22;1254;49.144;8.212;2022-08-25T08:49:58;26.20;99.90
2487;DHT22;1254;49.144;8.212;2022-08-25T08:55:56;26.40;99.90
2487;DHT22;1254;49.144;8.212;2022-08-25T09:01:06;26.10;99.90
2487;DHT22;1254;49.144;8.212;2022-08-25T09:03:37;26.60;99.90
2487;DHT22;1254;49.144;8.212;2022-08-25T09:06:21;26.70;99.90
2487;DHT22;1254;49.144;8.212;2022-08-25T09:08:49;26.70;99.90
2487;DHT22;1254;49.144;8.212;2022-08-25T09:11:22;26.70;99.90
2487;DHT22;1254;49.144;8.212;2022-08-25T09:14:11;26.90;99.90
2487;DHT22;1254;49.144;8.212;2022-08-25T09:17:01;26.80;99.90
2487;DHT22;1254;49.144;8.212;2022-08-25T09:25:24;27.20;99.90
2487;DHT22;1254;49.144;8.212;2022-08-25T09:28:04;27.40;99.90
2487;DHT22;1254;49.144;8.212;2022-08-25T09:30:44;27.20;99.90
2487;DHT22;1254;49.144;8.212;2022-08-25T09:33:18;27.40;99.90
2487;DHT22;1254;49.144;8.212;2022-08-25T09:35:46;27.30;99.90
2487;DHT22;1254;49.144;8.212;2022-08-25T09:38:12;27.20;99.90
2487;DHT22;1254;49.144;8.212;2022-08-25T09:40:48;27.60;99.90
2487;DHT22;1254;49.144;8.212;2022-08-25T09:43:40;27.30;99.90
2487;DHT22;1254;49.144;8.212;2022-08-25T09:46:09;27.40;99.90
2487;DHT22;1254;49.144;8.212;2022-08-25T09:48:48;27.70;99.90
2487;DHT22;1254;49.144;8.212;2022-08-25T09:51:32;27.90;99.90
2487;DHT22;1254;49.144;8.212;2022-08-25T09:57:06;28.00;99.90
2487;DHT22;1254;49.144;8.212;2022-08-25T09:59:35;28.00;99.90
2487;DHT22;1254;49.144;8.212;2022-08-25T10:02:25;28.10;99.90
2487;DHT22;1254;49.144;8.212;2022-08-25T10:04:52;28.60;99.90
2487;DHT22;1254;49.144;8.212;2022-08-25T10:07:33;28.30;99.90
2487;DHT22;1254;49.144;8.212;2022-08-25T10:10:05;28.60;99.90
2487;DHT22;1254;49.144;8.212;2022-08-25T10:12:44;28.80;99.90
2487;DHT22;1254;49.144;8.212;2022-08-25T10:15:25;28.00;99.90
2487;DHT22;1254;49.144;8.212;2022-08-25T10:17:52;27.80;99.90
2487;DHT22;1254;49.144;8.212;2022-08-25T10:20:22;28.40;99.90
2487;DHT22;1254;49.144;8.212;2022-08-25T10:22:50;28.30;99.90
2487;DHT22;1254;49.144;8.212;2022-08-25T10:25:26;28.50;99.90
2487;DHT22;1254;49.144;8.212;2022-08-25T10:30:58;28.90;99.90
2487;DHT22;1254;49.144;8.212;2022-08-25T10:36:18;28.90;99.90
2487;DHT22;1254;49.144;8.212;2022-08-25T10:38:54;29.00;99.90
2487;DHT22;1254;49.144;8.212;2022-08-25T10:41:37;29.30;99.90
2487;DHT22;1254;49.144;8.212;2022-08-25T10:47:38;29.30;99.90
2487;DHT22;1254;49.144;8.212;2022-08-25T10:50:27;29.40;99.90
2487;DHT22;1254;49.144;8.212;2022-08-25T10:53:14;29.00;99.90
2487;DHT22;1254;49.144;8.212;2022-08-25T11:04:09;29.20;99.90
2487;DHT22;1254;49.144;8.212;2022-08-25T11:09:23;30.30;99.90
2487;DHT22;1254;49.144;8.212;2022-08-25T11:11:59;29.80;99.90
2487;DHT22;1254;49.144;8.212;2022-08-25T11:14:35;30.00;99.90
2487;DHT22;1254;49.144;8.212;2022-08-25T11:17:11;30.40;99.90
2487;DHT22;1254;49.144;8.212;2022-08-25T11:19:42;31.00;99.90
2487;DHT22;1254;49.144;8.212;2022-08-25T11:22:29;31.00;99.90
2487;DHT22;1254;49.144;8.212;2022-08-25T11:25:22;30.70;99.90
2487;DHT22;1254;49.144;8.212;2022-08-25T11:28:13;31.50;99.90
2487;DHT22;1254;49.144;8.212;2022-08-25T11:30:41;32.10;99.90
2487;DHT22;1254;49.144;8.212;2022-08-25T11:33:17;31.70;99.90
2487;DHT22;1254;49.144;8.212;2022-08-25T11:36:53;31.90;99.90
2487;DHT22;1254;49.144;8.212;2022-08-25T11:39:16;32.20;99.90
2487;DHT22;1254;49.144;8.212;2022-08-25T11:45:46;31.00;99.90
2487;DHT22;1254;49.144;8.212;2022-08-25T11:50:58;31.90;99.90
2487;DHT22;1254;49.144;8.212;2022-08-25T11:56:36;31.90;99.90
2487;DHT22;1254;49.144;8.212;2022-08-25T11:59:03;32.60;99.90
2487;DHT22;1254;49.144;8.212;2022-08-25T12:04:38;33.20;99.90
2487;DHT22;1254;49.144;8.212;2022-08-25T12:18:37;32.70;99.90
2487;DHT22;1254;49.144;8.212;2022-08-25T12:29:40;34.30;99.90
2487;DHT22;1254;49.144;8.212;2022-08-25T12:35:18;34.30;99.90
2487;DHT22;1254;49.144;8.212;2022-08-25T12:40:52;33.80;99.90
2487;DHT22;1254;49.144;8.212;2022-08-25T12:43:27;33.50;99.90
2487;DHT22;1254;49.144;8.212;2022-08-25T12:51:51;34.50;99.90
2487;DHT22;1254;49.144;8.212;2022-08-25T12:57:00;35.30;99.90
2487;DHT22;1254;49.144;8.212;2022-08-25T12:59:37;34.80;99.90
2487;DHT22;1254;49.144;8.212;2022-08-25T13:11:50;34.50;99.90
2487;DHT22;1254;49.144;8.212;2022-08-25T13:14:37;34.70;99.90
2487;DHT22;1254;49.144;8.212;2022-08-25T13:17:06;35.50;99.90
2487;DHT22;1254;49.144;8.212;2022-08-25T13:19:34;36.50;99.90
2487;DHT22;1254;49.144;8.212;2022-08-25T13:22:08;36.50;99.90
2487;DHT22;1254;49.144;8.212;2022-08-25T13:24:41;36.60;99.90
2487;DHT22;1254;49.144;8.212;2022-08-25T13:27:18;34.80;99.90
2487;DHT22;1254;49.144;8.212;2022-08-25T13:29:57;35.70;99.90
2487;DHT22;1254;49.144;8.212;2022-08-25T13:32:30;36.00;99.90
2487;DHT22;1254;49.144;8.212;2022-08-25T13:35:29;34.90;99.90
2487;DHT22;1254;49.144;8.212;2022-08-25T13:38:13;35.00;99.90
2487;DHT22;1254;49.144;8.212;2022-08-25T13:40:40;35.90;99.90
2487;DHT22;1254;49.144;8.212;2022-08-25T13:43:09;36.70;99.90
2487;DHT22;1254;49.144;8.212;2022-08-25T13:45:40;36.20;99.90
2487;DHT22;1254;49.144;8.212;2022-08-25T13:48:08;36.20;99.90
2487;DHT22;1254;49.144;8.212;2022-08-25T13:50:38;36.30;99.90
2487;DHT22;1254;49.144;8.212;2022-08-25T13:53:21;36.50;99.90
2487;DHT22;1254;49.144;8.212;2022-08-25T13:55:54;37.10;99.90
2487;DHT22;1254;49.144;8.212;2022-08-25T13:58:28;36.00;99.90
2487;DHT22;1254;49.144;8.212;2022-08-25T14:04:29;36.30;99.90
2487;DHT22;1254;49.144;8.212;2022-08-25T14:15:31;36.30;99.90
2487;DHT22;1254;49.144;8.212;2022-08-25T14:18:11;35.00;99.90
2487;DHT22;1254;49.144;8.212;2022-08-25T14:20:52;35.20;99.90
2487;DHT22;1254;49.144;8.212;2022-08-25T14:23:25;36.40;99.90
2487;DHT22;1254;49.144;8.212;2022-08-25T14:25:54;37.40;99.90
2487;DHT22;1254;49.144;8.212;2022-08-25T14:28:24;37.50;99.90
2487;DHT22;1254;49.144;8.212;2022-08-25T14:30:55;37.30;99.90
2487;DHT22;1254;49.144;8.212;2022-08-25T14:33:36;37.60;99.90
2487;DHT22;1254;49.144;8.212;2022-08-25T14:36:04;37.70;99.90
2487;DHT22;1254;49.144;8.212;2022-08-25T14:38:31;37.30;99.90
2487;DHT22;1254;49.144;8.212;2022-08-25T14:40:58;36.50;99.90
2487;DHT22;1254;49.144;8.212;2022-08-25T14:43:26;35.60;99.90
2487;DHT22;1254;49.144;8.212;2022-08-25T14:45:52;36.10;99.90
2487;DHT22;1254;49.144;8.212;2022-08-25T14:48:40;36.50;99.90
2487;DHT22;1254;49.144;8.212;2022-08-25T14:51:10;37.00;99.90
2487;DHT22;1254;49.144;8.212;2022-08-25T14:53:37;37.90;99.90
2487;DHT22;1254;49.144;8.212;2022-08-25T14:56:03;38.00;99.90
2487;DHT22;1254;49.144;8.212;2022-08-25T14:58:30;36.20;99.90
2487;DHT22;1254;49.144;8.212;2022-08-25T15:00:56;35.50;99.90
2487;DHT22;1254;49.144;8.212;2022-08-25T15:03:32;36.20;99.90
2487;DHT22;1254;49.144;8.212;2022-08-25T15:05:59;36.10;99.90
2487;DHT22;1254;49.144;8.212;2022-08-25T15:08:26;36.60;99.90
2487;DHT22;1254;49.144;8.212;2022-08-25T15:11:11;36.80;99.90
2487;DHT22;1254;49.144;8.212;2022-08-25T15:13:40;37.20;99.90
2487;DHT22;1254;49.144;8.212;2022-08-25T15:16:07;37.00;99.90
2487;DHT22;1254;49.144;8.212;2022-08-25T15:18:34;37.20;99.90
2487;DHT22;1254;49.144;8.212;2022-08-25T15:21:01;36.70;99.90
2487;DHT22;1254;49.144;8.212;2022-08-25T15:23:28;37.00;99.90
2487;DHT22;1254;49.144;8.212;2022-08-25T15:25:55;38.00;99.90
2487;DHT22;1254;49.144;8.212;2022-08-25T15:28:23;37.60;99.90
2487;DHT22;1254;49.144;8.212;2022-08-25T15:30:49;37.50;99.90
2487;DHT22;1254;49.144;8.212;2022-08-25T15:33:16;37.80;99.90
2487;DHT22;1254;49.144;8.212;2022-08-25T15:35:43;38.50;99.90
2487;DHT22;1254;49.144;8.212;2022-08-25T15:38:10;37.90;99.90
2487;DHT22;1254;49.144;8.212;2022-08-25T15:40:36;36.40;99.90
2487;DHT22;1254;49.144;8.212;2022-08-25T15:43:04;35.90;99.90
2487;DHT22;1254;49.144;8.212;2022-08-25T15:45:31;35.10;99.90
2487;DHT22;1254;49.144;8.212;2022-08-25T15:47:58;34.30;99.90
2487;DHT22;1254;49.144;8.212;2022-08-25T15:50:24;33.70;99.90
2487;DHT22;1254;49.144;8.212;2022-08-25T15:52:52;33.70;99.90
2487;DHT22;1254;49.144;8.212;2022-08-25T15:55:18;33.60;99.90
2487;DHT22;1254;49.144;8.212;2022-08-25T15:57:44;33.40;99.90
2487;DHT22;1254;49.144;8.212;2022-08-25T16:00:11;33.10;99.90
2487;DHT22;1254;49.144;8.212;2022-08-25T16:02:38;33.20;99.90
2487;DHT22;1254;49.144;8.212;2022-08-25T16:05:08;33.10;99.90
2487;DHT22;1254;49.144;8.212;2022-08-25T16:07:36;33.00;99.90
2487;DHT22;1254;49.144;8.212;2022-08-25T16:10:03;32.70;99.90
2487;DHT22;1254;49.144;8.212;2022-08-25T16:12:30;32.80;99.90
2487;DHT22;1254;49.144;8.212;2022-08-25T16:14:56;32.90;99.90
2487;DHT22;1254;49.144;8.212;2022-08-25T16:17:23;33.00;99.90
2487;DHT22;1254;49.144;8.212;2022-08-25T16:19:49;32.80;99.90
2487;DHT22;1254;49.144;8.212;2022-08-25T16:22:16;32.70;99.90
2487;DHT22;1254;49.144;8.212;2022-08-25T16:24:43;32.90;99.90
2487;DHT22;1254;49.144;8.212;2022-08-25T16:27:10;33.20;99.90
2487;DHT22;1254;49.144;8.212;2022-08-25T16:29:41;32.80;99.90
2487;DHT22;1254;49.144;8.212;2022-08-25T16:32:11;32.60;99.90
2487;DHT22;1254;49.144;8.212;2022-08-25T16:34:38;32.50;99.90
2487;DHT22;1254;49.144;8.212;2022-08-25T16:37:04;32.60;99.90
2487;DHT22;1254;49.144;8.212;2022-08-25T16:39:31;32.60;99.90
2487;DHT22;1254;49.144;8.212;2022-08-25T16:41:57;32.70;99.90
2487;DHT22;1254;49.144;8.212;2022-08-25T16:44:24;32.60;99.90
2487;DHT22;1254;49.144;8.212;2022-08-25T16:46:50;32.80;99.90
2487;DHT22;1254;49.144;8.212;2022-08-25T16:49:19;33.00;99.90
2487;DHT22;1254;49.144;8.212;2022-08-25T16:51:46;32.90;99.90
2487;DHT22;1254;49.144;8.212;2022-08-25T16:54:12;33.00;99.90
2487;DHT22;1254;49.144;8.212;2022-08-25T16:56:57;32.60;99.90
2487;DHT22;1254;49.144;8.212;2022-08-25T16:59:24;32.80;99.90
2487;DHT22;1254;49.144;8.212;2022-08-25T17:01:51;33.30;99.90
2487;DHT22;1254;49.144;8.212;2022-08-25T17:04:18;33.90;99.90
2487;DHT22;1254;49.144;8.212;2022-08-25T17:06:45;34.40;99.90
2487;DHT22;1254;49.144;8.212;2022-08-25T17:09:12;34.90;99.90
2487;DHT22;1254;49.144;8.212;2022-08-25T17:11:41;35.00;99.90
2487;DHT22;1254;49.144;8.212;2022-08-25T17:14:10;35.20;99.90
2487;DHT22;1254;49.144;8.212;2022-08-25T17:16:37;35.70;99.90
2487;DHT22;1254;49.144;8.212;2022-08-25T17:19:06;36.20;99.90
2487;DHT22;1254;49.144;8.212;2022-08-25T17:21:35;35.30;99.90
2487;DHT22;1254;49.144;8.212;2022-08-25T17:24:04;34.90;99.90
2487;DHT22;1254;49.144;8.212;2022-08-25T17:26:30;34.70;99.90
2487;DHT22;1254;49.144;8.212;2022-08-25T17:28:58;35.10;99.90
2487;DHT22;1254;49.144;8.212;2022-08-25T17:31:25;34.80;99.90
2487;DHT22;1254;49.144;8.212;2022-08-25T17:33:52;35.20;99.90
2487;DHT22;1254;49.144;8.212;2022-08-25T17:36:18;35.10;99.90
2487;DHT22;1254;49.144;8.212;2022-08-25T17:38:45;34.90;99.90
2487;DHT22;1254;49.144;8.212;2022-08-25T17:41:12;34.50;99.90
2487;DHT22;1254;49.144;8.212;2022-08-25T17:43:41;33.30;99.90
2487;DHT22;1254;49.144;8.212;2022-08-25T17:46:10;32.80;99.90
2487;DHT22;1254;49.144;8.212;2022-08-25T17:48:37;32.20;99.90
2487;DHT22;1254;49.144;8.212;2022-08-25T17:51:05;31.80;99.90
2487;DHT22;1254;49.144;8.212;2022-08-25T17:53:33;31.60;99.90
2487;DHT22;1254;49.144;8.212;2022-08-25T17:56:06;31.40;99.90
2487;DHT22;1254;49.144;8.212;2022-08-25T17:58:33;31.20;99.90
2487;DHT22;1254;49.144;8.212;2022-08-25T18:01:00;31.10;99.90
2487;DHT22;1254;49.144;8.212;2022-08-25T18:03:28;31.10;99.90
2487;DHT22;1254;49.144;8.212;2022-08-25T18:05:54;31.00;99.90
2487;DHT22;1254;49.144;8.212;2022-08-25T18:08:21;30.80;99.90
2487;DHT22;1254;49.144;8.212;2022-08-25T18:10:48;30.50;99.90
2487;DHT22;1254;49.144;8.212;2022-08-25T18:13:17;30.30;99.90